Dream Angel — 3EEV — position and weather

sailwx.info

Track history (hours):
 
Tides and Currents Weather Stations Pressure Air Temp Water Temp Dewpoint Dewpoint Depression Visibility Wind Speed Wind Dir Waves Ship Positions

Dream Angel

Last reported at 2016-Sep-27 10:28 UTC. Time now 2016-Sep-29 01:37 UTC.
Position N 34°28' E 138°30'.

Length 187 m; draft 6.9 m.

Type: Cargo ship. MMSI: 371820000.

Date/timePositionNaut miles runAvg speedWind from/ knotsBaromVisibWave heightAir tempDewpointWater temp
2016-Sep-27 10:28N 34°28' E 138°30'83 8.3
2016-Sep-27 00:31N 35°27' E 139°41'2 0.6
2016-Sep-26 20:31N 35°25' E 139°42'0 0.0
2016-Sep-26 19:31N 35°25' E 139°42'0 0.0
2016-Sep-26 15:31N 35°25' E 139°42'0 0.0
2016-Sep-26 13:31N 35°25' E 139°42'0 0.0
2016-Sep-26 11:31N 35°25' E 139°42'0 0.0
2016-Sep-26 08:31N 35°25' E 139°42'1 0.2
2016-Sep-26 02:33N 35°25' E 139°41'0 0.0
2016-Sep-26 01:33N 35°25' E 139°41'2 1.6
2016-Sep-26 00:33N 35°25' E 139°43'0 0.1
2016-Sep-25 21:31N 35°25' E 139°43'0 0.0
2016-Sep-25 17:31N 35°25' E 139°43'0 0.0
2016-Sep-25 16:31N 35°25' E 139°43'0 0.1
2016-Sep-25 15:28N 35°25' E 139°43'0 0.0
2016-Sep-25 14:31N 35°25' E 139°43'0 0.0
2016-Sep-25 12:31N 35°25' E 139°43'0 0.0
2016-Sep-25 11:31N 35°25' E 139°43'0 0.0
2016-Sep-25 10:31N 35°25' E 139°43'0 0.0
2016-Sep-25 09:31N 35°25' E 139°43'0 0.0
2016-Sep-25 07:31N 35°25' E 139°43'0 0.0
2016-Sep-25 04:31N 35°25' E 139°43'0 0.0
2016-Sep-25 00:31N 35°25' E 139°43'10 5.0
2016-Sep-24 22:33N 35°16' E 139°46'9 9.5
2016-Sep-24 21:33N 35°06' E 139°46'17 8.5
2016-Sep-24 19:33N 34°50' E 139°45'9 8.7
2016-Sep-24 18:28N 34°43' E 139°53'0 0.2
2016-Sep-24 17:25N 34°43' E 139°53'7 8.1
2016-Sep-24 16:33N 34°46' E 140°00'2713.5
2016-Sep-24 14:32N 35°02' E 140°28'2512.7
2016-Sep-24 12:33N 35°21' E 140°47'3015.3
2016-Sep-24 10:33N 35°50' E 141°01'1615.5
2016-Sep-24 09:33N 36°04' E 140°53'  
2016-Sep-18 15:28N 35°16' E 140°57'157 9.3
2016-Sep-17 22:27N 34°06' E 138°06'  
Track history (hours):
 
Tides and Currents Weather Stations Pressure Air Temp Water Temp Dewpoint Dewpoint Depression Visibility Wind Speed Wind Dir Waves Ship Positions

Dream Angel

Last reported at 2016-Sep-27 10:28 UTC. Time now 2016-Sep-29 01:37 UTC.
Position N 34°28' E 138°30'.

Length 187 m; draft 6.9 m.

Type: Cargo ship. MMSI: 371820000.

Date/timePositionNaut miles runAvg speedWind from/ knotsBaromVisibWave heightAir tempDewpointWater temp
2016-Sep-27 10:28N 34°28' E 138°30'83 8.3
2016-Sep-27 00:31N 35°27' E 139°41'2 0.6
2016-Sep-26 20:31N 35°25' E 139°42'0 0.0
2016-Sep-26 19:31N 35°25' E 139°42'0 0.0
2016-Sep-26 15:31N 35°25' E 139°42'0 0.0
2016-Sep-26 13:31N 35°25' E 139°42'0 0.0
2016-Sep-26 11:31N 35°25' E 139°42'0 0.0
2016-Sep-26 08:31N 35°25' E 139°42'1 0.2
2016-Sep-26 02:33N 35°25' E 139°41'0 0.0
2016-Sep-26 01:33N 35°25' E 139°41'2 1.6
2016-Sep-26 00:33N 35°25' E 139°43'0 0.1
2016-Sep-25 21:31N 35°25' E 139°43'0 0.0
2016-Sep-25 17:31N 35°25' E 139°43'0 0.0
2016-Sep-25 16:31N 35°25' E 139°43'0 0.1
2016-Sep-25 15:28N 35°25' E 139°43'0 0.0
2016-Sep-25 14:31N 35°25' E 139°43'0 0.0
2016-Sep-25 12:31N 35°25' E 139°43'0 0.0
2016-Sep-25 11:31N 35°25' E 139°43'0 0.0
2016-Sep-25 10:31N 35°25' E 139°43'0 0.0
2016-Sep-25 09:31N 35°25' E 139°43'0 0.0
2016-Sep-25 07:31N 35°25' E 139°43'0 0.0
2016-Sep-25 04:31N 35°25' E 139°43'0 0.0
2016-Sep-25 00:31N 35°25' E 139°43'10 5.0
2016-Sep-24 22:33N 35°16' E 139°46'9 9.5
2016-Sep-24 21:33N 35°06' E 139°46'17 8.5
2016-Sep-24 19:33N 34°50' E 139°45'9 8.7
2016-Sep-24 18:28N 34°43' E 139°53'0 0.2
2016-Sep-24 17:25N 34°43' E 139°53'7 8.1
2016-Sep-24 16:33N 34°46' E 140°00'2713.5
2016-Sep-24 14:32N 35°02' E 140°28'2512.7
2016-Sep-24 12:33N 35°21' E 140°47'3015.3
2016-Sep-24 10:33N 35°50' E 141°01'1615.5
2016-Sep-24 09:33N 36°04' E 140°53'  
2016-Sep-18 15:28N 35°16' E 140°57'157 9.3
2016-Sep-17 22:27N 34°06' E 138°06'  

Dump ship's entire track history